createdAt,value
2019-06-08T00:03:50.200Z,44.80
2019-06-08T00:08:54.207Z,45.05
2019-06-08T00:13:58.293Z,44.68
2019-06-08T00:19:02.303Z,44.86
2019-06-08T00:24:06.330Z,44.77
2019-06-08T00:29:10.342Z,45.03
2019-06-08T00:34:14.695Z,44.75
2019-06-08T00:39:18.965Z,44.73
2019-06-08T00:44:23.369Z,44.85
2019-06-08T00:49:27.460Z,44.97
2019-06-08T00:54:31.726Z,45.39
2019-06-08T00:59:35.665Z,45.05
2019-06-08T01:04:39.592Z,45.38
2019-06-08T01:09:43.619Z,45.52
2019-06-08T01:14:47.748Z,45.40
2019-06-08T01:19:51.701Z,45.52
2019-06-08T01:24:55.737Z,45.62
2019-06-08T01:29:59.748Z,46.04
2019-06-08T01:35:04.062Z,45.82
2019-06-08T01:40:08.583Z,46.05
2019-06-08T01:45:16.218Z,46.13
2019-06-08T01:50:20.082Z,46.57
2019-06-08T01:55:25.128Z,46.51
2019-06-08T02:00:35.253Z,46.83
2019-06-08T02:05:35.689Z,46.98
2019-06-08T02:10:39.994Z,47.46
2019-06-08T02:15:44.146Z,47.48
2019-06-08T02:20:48.209Z,47.91
2019-06-08T02:25:52.285Z,47.38
2019-06-08T02:30:56.515Z,47.28
2019-06-08T02:36:00.518Z,46.95
2019-06-08T02:41:04.678Z,46.90
2019-06-08T02:46:08.733Z,46.95
2019-06-08T02:51:13.750Z,47.04
2019-06-08T02:56:20.444Z,46.95
2019-06-08T03:01:24.528Z,47.00
2019-06-08T03:06:32.240Z,47.23
2019-06-08T03:11:38.918Z,47.24
2019-06-08T03:16:43.373Z,47.06
2019-06-08T03:21:47.492Z,47.56
2019-06-08T03:26:51.973Z,47.37
2019-06-08T03:31:57.399Z,47.52
2019-06-08T03:37:02.165Z,47.81
2019-06-08T03:42:06.244Z,47.77
2019-06-08T03:47:10.545Z,47.78
2019-06-08T03:52:14.553Z,47.99
2019-06-08T03:57:18.576Z,48.21
2019-06-08T04:02:22.548Z,48.37
2019-06-08T04:07:26.792Z,48.60
2019-06-08T04:12:30.796Z,48.33
2019-06-08T04:17:34.813Z,48.54
2019-06-08T04:22:46.505Z,48.61
2019-06-08T04:27:51.138Z,48.24
2019-06-08T04:32:55.150Z,48.34
2019-06-08T04:37:59.396Z,48.36
2019-06-08T04:43:03.634Z,48.56
2019-06-08T04:48:09.613Z,48.54
2019-06-08T04:53:13.229Z,48.54
2019-06-08T04:58:17.189Z,48.76
2019-06-08T05:03:21.211Z,48.97
2019-06-08T05:08:25.461Z,48.87
2019-06-08T05:13:29.405Z,49.25
2019-06-08T05:18:33.416Z,48.98
2019-06-08T05:23:37.541Z,48.37
2019-06-08T05:28:41.559Z,48.42
2019-06-08T05:33:47.487Z,48.45
2019-06-08T05:38:51.481Z,48.47
2019-06-08T05:43:55.654Z,48.54
2019-06-08T05:49:00.000Z,48.57
2019-06-08T05:54:04.026Z,48.71
2019-06-08T05:59:08.020Z,48.53
2019-06-08T06:04:12.038Z,48.65
2019-06-08T06:09:16.059Z,48.49
2019-06-08T06:14:20.023Z,48.71
2019-06-08T06:19:24.006Z,48.53
2019-06-08T06:24:28.049Z,48.52
2019-06-08T06:29:32.164Z,48.96
2019-06-08T06:34:36.298Z,48.70
2019-06-08T06:39:40.229Z,47.84
2019-06-08T06:44:45.733Z,47.74
2019-06-08T06:49:50.631Z,47.69
2019-06-08T06:54:55.014Z,47.77
2019-06-08T06:59:59.173Z,47.36
2019-06-08T07:05:03.307Z,47.12
2019-06-08T07:10:08.891Z,47.26
2019-06-08T07:15:16.070Z,46.90
2019-06-08T07:20:20.077Z,46.81
2019-06-08T07:25:24.156Z,46.02
2019-06-08T07:30:28.164Z,46.14
2019-06-08T07:35:32.691Z,46.05
2019-06-08T07:40:36.689Z,45.08
2019-06-08T07:45:40.945Z,44.68
2019-06-08T07:50:44.954Z,43.73
2019-06-08T07:55:50.068Z,43.80
2019-06-08T08:00:59.454Z,43.84
2019-06-08T08:06:00.332Z,43.39
2019-06-08T08:11:04.414Z,43.43
2019-06-08T08:16:08.362Z,43.18
2019-06-08T08:21:22.153Z,42.77
2019-06-08T08:26:19.004Z,42.39
2019-06-08T08:31:23.206Z,42.32
2019-06-08T08:36:29.421Z,42.29
2019-06-08T08:41:32.930Z,42.28
2019-06-08T08:46:38.745Z,41.93
2019-06-08T08:51:43.103Z,41.30
2019-06-08T08:56:50.497Z,41.18
2019-06-08T09:01:52.972Z,40.74
2019-06-08T09:06:58.815Z,39.39
2019-06-08T09:12:08.093Z,39.09
2019-06-08T09:17:11.891Z,38.77
2019-06-08T09:22:18.627Z,37.00
2019-06-08T09:27:21.690Z,37.63
2019-06-08T09:32:28.083Z,36.47
2019-06-08T09:37:31.501Z,36.31
2019-06-08T09:42:35.954Z,35.39
2019-06-08T09:47:40.288Z,35.47
2019-06-08T09:52:44.381Z,33.94
2019-06-08T09:57:48.771Z,34.87
2019-06-08T10:02:54.655Z,34.48
2019-06-08T10:08:00.853Z,34.62
2019-06-08T10:13:09.209Z,34.47
2019-06-08T10:18:10.938Z,33.87
2019-06-08T10:23:29.922Z,32.98
2019-06-08T10:28:21.717Z,32.62
2019-06-08T10:33:28.114Z,32.83
2019-06-08T10:38:31.711Z,32.50
2019-06-08T10:43:38.302Z,30.52
2019-06-08T10:48:41.832Z,30.81
2019-06-08T10:53:51.908Z,30.82
2019-06-08T10:58:51.756Z,30.33
2019-06-08T11:03:58.076Z,30.10
2019-06-08T11:09:05.284Z,30.73
2019-06-08T11:14:12.215Z,30.73
2019-06-08T11:19:14.062Z,30.47
2019-06-08T11:24:24.499Z,27.32
2019-06-08T11:29:24.182Z,29.48
2019-06-08T11:34:28.772Z,29.48
2019-06-08T11:39:32.997Z,28.04
2019-06-08T11:44:39.057Z,28.78
2019-06-08T11:49:42.797Z,29.65
2019-06-08T11:54:48.106Z,29.75
2019-06-08T11:59:53.790Z,29.75
2019-06-08T12:04:57.842Z,28.90
2019-06-08T12:10:02.981Z,27.26
2019-06-08T12:15:11.186Z,27.90
2019-06-08T12:20:17.410Z,27.55
2019-06-08T12:25:18.991Z,28.50
2019-06-08T12:30:26.129Z,28.70
2019-06-08T12:35:28.731Z,29.71
2019-06-08T12:40:32.798Z,28.89
2019-06-08T12:45:38.097Z,28.56
2019-06-08T12:50:42.121Z,29.17
2019-06-08T12:55:47.558Z,27.96
2019-06-08T13:00:51.731Z,29.03
2019-06-08T13:05:57.550Z,28.92
2019-06-08T13:11:01.411Z,29.35
2019-06-08T13:16:05.397Z,29.32
2019-06-08T13:21:24.530Z,29.41
2019-06-08T13:26:20.165Z,28.96
2019-06-08T13:31:22.603Z,28.62
2019-06-08T13:36:29.569Z,28.51
2019-06-08T13:41:32.897Z,27.69
2019-06-08T13:46:37.890Z,28.94
2019-06-08T13:51:41.974Z,29.19
2019-06-08T13:56:47.914Z,28.88
2019-06-08T14:01:52.441Z,28.53
2019-06-08T14:06:58.116Z,29.07
2019-06-08T14:12:02.363Z,28.77
2019-06-08T14:17:08.350Z,28.88
2019-06-08T14:22:12.112Z,28.43
2019-06-08T14:27:17.128Z,29.47
2019-06-08T14:32:22.317Z,29.21
2019-06-08T14:37:28.960Z,28.88
2019-06-08T14:42:32.508Z,28.94
2019-06-08T14:47:37.676Z,29.44
2019-06-08T14:52:41.880Z,29.05
2019-06-08T14:57:48.027Z,28.62
2019-06-08T15:02:51.607Z,28.70
2019-06-08T15:07:58.118Z,29.05
2019-06-08T15:13:01.585Z,28.13
2019-06-08T15:18:08.406Z,28.05
2019-06-08T15:23:11.587Z,28.24
2019-06-08T15:28:15.586Z,28.35
2019-06-08T15:33:21.570Z,27.65
2019-06-08T15:38:25.463Z,28.56
2019-06-08T15:43:34.474Z,28.09
2019-06-08T15:48:38.160Z,27.77
2019-06-08T15:53:42.289Z,27.63
2019-06-08T15:58:48.678Z,27.33
2019-06-08T16:03:52.527Z,28.09
2019-06-08T16:08:56.637Z,28.22
2019-06-08T16:14:00.819Z,27.81
2019-06-08T16:19:04.968Z,28.36
2019-06-08T16:24:08.982Z,28.60
2019-06-08T16:29:12.934Z,28.64
2019-06-08T16:34:16.939Z,28.27
2019-06-08T16:39:20.877Z,27.84
2019-06-08T16:44:24.808Z,27.50
2019-06-08T16:49:29.166Z,27.88
2019-06-08T16:54:33.179Z,27.88
2019-06-08T16:59:38.576Z,27.24
2019-06-08T17:04:42.670Z,27.26
2019-06-08T17:09:46.692Z,27.71
2019-06-08T17:14:50.711Z,27.93
2019-06-08T17:19:55.000Z,28.08
2019-06-08T17:24:58.955Z,28.46
2019-06-08T17:30:08.351Z,28.41
2019-06-08T17:35:09.191Z,28.30
2019-06-08T17:40:13.419Z,28.85
2019-06-08T17:45:18.198Z,29.27
2019-06-08T17:50:24.088Z,29.04
2019-06-08T17:55:28.087Z,28.84
2019-06-08T18:00:33.205Z,29.04
2019-06-08T18:05:41.953Z,28.61
2019-06-08T18:10:44.431Z,28.78
2019-06-08T18:15:48.834Z,28.82
2019-06-08T18:20:52.975Z,28.89
2019-06-08T18:25:58.177Z,29.22
2019-06-08T18:31:02.479Z,29.55
2019-06-08T18:36:07.661Z,29.84
2019-06-08T18:41:11.679Z,29.76
2019-06-08T18:46:17.836Z,30.22
2019-06-08T18:51:21.740Z,30.70
2019-06-08T18:56:27.566Z,31.07
2019-06-08T19:01:31.950Z,31.64
2019-06-08T19:06:38.739Z,32.61
2019-06-08T19:11:43.557Z,33.79
2019-06-08T19:16:54.286Z,35.42
2019-06-08T19:21:53.247Z,36.40
2019-06-08T19:26:57.884Z,37.17
2019-06-08T19:32:02.169Z,37.31
2019-06-08T19:37:07.939Z,38.13
2019-06-08T19:42:11.969Z,39.93
2019-06-08T19:47:17.656Z,40.96
2019-06-08T19:52:22.195Z,42.27
2019-06-08T19:57:28.152Z,43.07
2019-06-08T20:02:32.054Z,43.51
2019-06-08T20:07:37.912Z,44.51
2019-06-08T20:12:43.209Z,45.84
2019-06-08T20:17:48.943Z,46.81
2019-06-08T20:22:54.972Z,47.32
2019-06-08T20:27:59.181Z,48.30
2019-06-08T20:33:03.359Z,48.52
2019-06-08T20:38:08.239Z,48.89
2019-06-08T20:43:12.465Z,48.85
2019-06-08T20:48:18.284Z,48.52
2019-06-08T20:53:23.886Z,48.69
2019-06-08T20:58:28.524Z,48.91
2019-06-08T21:03:32.558Z,49.79
2019-06-08T21:08:37.217Z,50.54
2019-06-08T21:13:41.684Z,51.04
2019-06-08T21:18:46.842Z,51.03
2019-06-08T21:23:54.186Z,51.59
2019-06-08T21:29:00.132Z,51.56
2019-06-08T21:34:02.166Z,52.06
2019-06-08T21:39:08.320Z,52.47
2019-06-08T21:44:12.455Z,52.98
2019-06-08T21:49:18.241Z,53.46
2019-06-08T21:54:22.247Z,53.82
2019-06-08T21:59:26.717Z,54.38
2019-06-08T22:04:31.138Z,54.58
2019-06-08T22:09:37.284Z,54.75
2019-06-08T22:14:40.962Z,54.80
2019-06-08T22:19:47.354Z,55.13
2019-06-08T22:24:51.862Z,55.08
2019-06-08T22:29:58.205Z,55.75
2019-06-08T22:35:03.290Z,56.20
2019-06-08T22:40:08.441Z,56.70
2019-06-08T22:45:12.741Z,56.88
2019-06-08T22:50:18.523Z,56.76
2019-06-08T22:55:22.558Z,57.26
2019-06-08T23:00:27.998Z,57.36
2019-06-08T23:05:32.807Z,57.73
2019-06-08T23:10:37.415Z,58.04
2019-06-08T23:15:41.577Z,58.34
2019-06-08T23:20:47.760Z,58.54
2019-06-08T23:25:51.249Z,58.73
2019-06-08T23:31:05.797Z,58.55
2019-06-08T23:36:34.242Z,58.60
2019-06-08T23:41:09.924Z,58.55
2019-06-08T23:46:12.439Z,58.96
2019-06-08T23:51:18.074Z,59.53
2019-06-08T23:56:22.318Z,59.64
